Time;durP1;ratioP1;P1;durP2;ratioP2;P2;SDS_P1;SDS_P2;PMS_P1;PMS_P2;Temp;Humidity;BMP_temperature;BMP_pressure;BME280_temperature;BME280_humidity;BME280_pressure;Samples;Min_cycle;Max_cycle;Signal;HPM_P1;HPM_P2
2022/08/30 00:02:51;;;;;;;;;;;;;;;22.98;60.43;99879.31;4448009;32;19999;-91
2022/08/30 00:05:16;;;;;;;;;;;;;;;22.97;60.43;99873.16;4440988;32;20757;-93
2022/08/30 00:07:41;;;;;;;;;;;;;;;23.07;60.43;99863.47;4453668;32;19999;-92
2022/08/30 00:10:06;;;;;;;;;;;;;;;;;;4449482;32;27537;-92
2022/08/30 00:12:32;;;;;;;;;;;;;;;23.02;60.42;99867.47;4473098;32;19969;-91
2022/08/30 00:14:58;;;;;;;;;;;;;;;23.06;60.43;99860.94;4464617;32;19992;-92
2022/08/30 00:17:23;;;;;;;;;;;;;;;23.13;60.44;99867.41;4463055;32;19997;-94
2022/08/30 00:19:48;;;;;;;;;;;;;;;23.12;60.44;99868.38;4441873;32;20029;-92
2022/08/30 00:22:14;;;;;;;;;;;;;;;22.89;60.42;99871.09;4443346;32;19991;-93
2022/08/30 00:24:39;;;;;;;;;;;;;;;22.91;60.42;99865.66;4440659;32;20004;-93
2022/08/30 00:27:04;;;;;;;;;;;;;;;22.91;60.42;99869.16;4451109;32;20009;-91
2022/08/30 00:29:29;;;;;;;;;;;;;;;23.02;60.42;99863.00;4448453;32;20009;-94
2022/08/30 00:31:55;;;;;;;;;;;;;;;23.08;60.43;99866.97;4457607;32;20558;-95
2022/08/30 00:34:20;;;;;;;;;;;;;;;23.06;60.43;99863.59;4444742;32;19977;-96
2022/08/30 00:36:45;;;;;;;;;;;;;;;23.02;60.42;99865.66;4446451;32;20016;-94
2022/08/30 00:39:10;;;;;;;;;;;;;;;23.14;60.43;99866.44;4444139;32;19981;-94
2022/08/30 00:41:36;;;;;;;;;;;;;;;23.15;60.43;99862.81;4443767;32;19969;-94
2022/08/30 00:44:01;;;;;;;;;;;;;;;23.15;60.43;99871.63;4445816;32;20008;-94
2022/08/30 00:46:26;;;;;;;;;;;;;;;23.07;60.43;99862.63;4443933;32;19993;-94
2022/08/30 00:48:52;;;;;;;;;;;;;;;23.02;60.42;99868.31;4444771;32;19999;-96
2022/08/30 00:51:20;;;;;;;;;;;;;;;23.16;60.43;99857.38;4443701;32;20321;-95
2022/08/30 00:53:46;;;;;;;;;;;;;;;23.13;60.43;99868.25;4441797;32;20000;-96
2022/08/30 00:56:11;;;;;;;;;;;;;;;23.07;60.43;99868.78;4459358;32;20001;-95
2022/08/30 00:58:37;;;;;;;;;;;;;;;23.01;60.42;99869.28;4459452;32;20025;-95
2022/08/30 01:01:03;;;;;;;;;;;;;;;23.05;60.43;99878.69;4446199;32;19992;-95
2022/08/30 01:03:29;;;;;;;;;;;;;;;22.96;60.42;99866.16;4445844;32;19984;-94
2022/08/30 01:05:54;;;;;;;;;;;;;;;22.92;60.42;99872.66;4455078;32;20040;-95
2022/08/30 01:08:21;;;;;;;;;;;;;;;22.93;60.42;99867.22;4446080;32;20306;-96
2022/08/30 01:10:46;;;;;;;;;;;;;;;22.82;60.41;99869.94;4446428;32;19985;-94
2022/08/30 01:13:14;;;;;;;;;;;;;;;22.73;60.42;99869.81;4446224;32;20003;-94
2022/08/30 01:15:39;;;;;;;;;;;;;;;22.84;60.42;99860.03;4446093;32;20333;-95
2022/08/30 01:18:05;;;;;;;;;;;;;;;22.76;60.41;99862.44;4443421;32;19989;-95
2022/08/30 01:20:43;;;;;;;;;;;;;;;22.81;60.42;99864.72;4443448;32;20020;-95
2022/08/30 01:23:11;;;;;;;;;;;;;;;22.88;60.41;99868.56;4458931;32;20046;-95
2022/08/30 01:25:36;;;;;;;;;;;;;;;22.65;60.41;99862.44;4443757;32;19965;-95
2022/08/30 01:28:06;;;;;;;;;;;;;;;22.64;60.41;99866.91;4435750;32;20020;-94
2022/08/30 01:30:31;;;;;;;;;;;;;;;22.68;60.41;99863.03;4442870;32;20007;-95
2022/08/30 01:33:00;;;;;;;;;;;;;;;22.58;60.41;99861.25;4446198;32;20001;-95
2022/08/30 01:35:25;;;;;;;;;;;;;;;22.80;60.42;99861.22;4446131;32;19989;-94
2022/08/30 01:37:50;;;;;;;;;;;;;;;22.76;60.41;99861.59;4446302;32;20242;-94
2022/08/30 01:40:16;;;;;;;;;;;;;;;22.66;60.41;99862.31;4446368;32;19972;-96
2022/08/30 01:42:41;;;;;;;;;;;;;;;22.66;60.41;99856.16;4446624;32;20049;-95
2022/08/30 01:45:07;;;;;;;;;;;;;;;22.75;60.41;99858.09;4444498;32;19985;-95
2022/08/30 01:47:33;;;;;;;;;;;;;;;22.58;60.40;99858.59;4433209;32;19981;-96
2022/08/30 01:49:58;;;;;;;;;;;;;;;22.65;60.41;99857.13;4458748;32;20368;-96
2022/08/30 01:52:24;;;;;;;;;;;;;;;22.70;60.41;99854.09;4454489;32;19961;-95
2022/08/30 01:54:49;;;;;;;;;;;;;;;22.56;60.39;99853.41;4460339;32;20019;-96
2022/08/30 01:57:16;;;;;;;;;;;;;;;22.55;60.40;99845.59;4457913;32;19996;-95
2022/08/30 01:59:42;;;;;;;;;;;;;;;22.52;60.40;99848.47;4443385;32;20052;-95
2022/08/30 02:02:07;;;;;;;;;;;;;;;22.40;60.39;99852.09;4441425;32;19993;-96
2022/08/30 02:04:32;;;;;;;;;;;;;;;22.23;60.38;99850.75;4444617;32;20007;-96
2022/08/30 02:06:58;;;;;;;;;;;;;;;22.22;60.38;99851.72;4440439;32;19986;-96
2022/08/30 02:09:25;;;;;;;;;;;;;;;22.18;60.39;99848.47;4453035;32;19958;-96
2022/08/30 02:11:51;;;;;;;;;;;;;;;22.21;60.39;99842.09;4452908;32;19984;-96
2022/08/30 02:14:18;;;;;;;;;;;;;;;22.21;60.39;99842.94;4466702;32;19985;-96
2022/08/30 02:16:47;;;;;;;;;;;;;;;22.28;60.39;99852.12;4440776;32;20011;-96
2022/08/30 02:19:17;;;;;;;;;;;;;;;22.17;60.37;99846.78;4468031;32;19977;-96
2022/08/30 02:21:48;;;;;;;;;;;;;;;22.13;60.38;99844.50;4467268;32;20611;-96
2022/08/30 02:24:13;;;;;;;;;;;;;;;22.24;60.38;99842.72;4440510;32;19981;-96
2022/08/30 02:26:39;;;;;;;;;;;;;;;22.14;60.38;99849.69;4452754;32;19953;-96
2022/08/30 02:29:05;;;;;;;;;;;;;;;22.16;60.38;99849.56;4440387;32;20231;-96
2022/08/30 02:31:30;;;;;;;;;;;;;;;22.21;60.39;99847.41;4451481;32;19988;-96
2022/08/30 02:33:56;;;;;;;;;;;;;;;22.00;60.37;99847.22;4438479;32;20031;-96
2022/08/30 02:36:21;;;;;;;;;;;;;;;21.98;60.37;99847.34;4449196;32;19993;-96
2022/08/30 02:38:47;;;;;;;;;;;;;;;21.96;60.37;99848.44;4450668;32;19991;-96
2022/08/30 02:41:12;;;;;;;;;;;;;;;22.16;60.38;99854.88;4448993;32;20012;-96
2022/08/30 02:43:37;;;;;;;;;;;;;;;22.28;60.39;99857.41;4446272;32;19999;-96
2022/08/30 02:46:03;;;;;;;;;;;;;;;21.82;60.36;99862.78;4446260;32;19977;-95
2022/08/30 02:48:28;;;;;;;;;;;;;;;21.99;60.36;99857.00;4443665;32;20235;-96
2022/08/30 02:50:53;;;;;;;;;;;;;;;21.99;60.37;99854.34;4442827;32;22431;-96
2022/08/30 02:53:19;;;;;;;;;;;;;;;21.84;60.36;99854.69;4446417;32;19981;-96
2022/08/30 02:55:45;;;;;;;;;;;;;;;21.71;60.36;99857.44;4461586;32;19989;-96
2022/08/30 02:58:11;;;;;;;;;;;;;;;21.79;60.35;99848.91;4439708;32;20005;-96
2022/08/30 03:00:37;;;;;;;;;;;;;;;21.66;60.35;99846.34;4441548;32;19993;-96
2022/08/30 03:03:06;;;;;;;;;;;;;;;21.37;60.34;99845.91;4448065;32;20001;-95
2022/08/30 03:05:34;;;;;;;;;;;;;;;21.39;60.34;99849.28;4477078;32;20848;-96
2022/08/30 03:08:00;;;;;;;;;;;;;;;21.46;60.34;99855.78;4461794;32;19957;-96
2022/08/30 03:10:27;;;;;;;;;;;;;;;21.44;60.34;99847.97;4447549;32;20024;-95
2022/08/30 03:12:53;;;;;;;;;;;;;;;21.38;60.34;99853.72;4447463;32;20000;-96
2022/08/30 03:15:18;;;;;;;;;;;;;;;21.25;60.33;99849.47;4447037;32;20032;-96
2022/08/30 03:17:43;;;;;;;;;;;;;;;21.17;60.32;99855.31;4460495;32;19977;-95
2022/08/30 03:20:09;;;;;;;;;;;;;;;21.00;60.31;99859.19;4446855;32;20046;-95
2022/08/30 03:22:34;;;;;;;;;;;;;;;21.11;60.32;99867.19;4438903;32;20028;-96
2022/08/30 03:25:00;;;;;;;;;;;;;;;21.46;60.34;99866.38;4448458;32;20000;-95
2022/08/30 03:27:26;;;;;;;;;;;;;;;21.54;60.35;99866.69;4457213;32;20008;-95
2022/08/30 03:29:52;;;;;;;;;;;;;;;21.48;60.34;99868.91;4469165;32;19974;-95
2022/08/30 03:32:27;;;;;;;;;;;;;;;21.41;60.33;99868.53;4450946;32;19997;-96
2022/08/30 03:34:53;;;;;;;;;;;;;;;21.35;60.34;99875.16;4466013;32;20033;-95
2022/08/30 03:37:19;;;;;;;;;;;;;;;21.36;60.34;99878.66;4464680;32;20266;-95
2022/08/30 03:39:44;;;;;;;;;;;;;;;21.23;60.32;99878.66;4464770;32;19984;-95
2022/08/30 03:42:10;;;;;;;;;;;;;;;21.24;60.33;99882.19;4448518;32;20022;-95
2022/08/30 03:44:35;;;;;;;;;;;;;;;21.36;60.34;99883.94;4448581;32;20016;-94
2022/08/30 03:47:00;;;;;;;;;;;;;;;21.26;60.34;99888.22;4446741;32;19987;-96
2022/08/30 03:49:26;;;;;;;;;;;;;;;21.47;60.34;99883.12;4447069;32;20012;-95
2022/08/30 03:51:51;;;;;;;;;;;;;;;21.41;60.34;99887.94;4443176;32;20013;-93
2022/08/30 03:54:16;;;;;;;;;;;;;;;21.19;60.33;99892.25;4445221;32;19980;-95
2022/08/30 03:56:41;;;;;;;;;;;;;;;21.30;60.33;99881.75;4445613;32;19976;-95
2022/08/30 03:59:07;;;;;;;;;;;;;;;21.41;60.34;99887.94;4445774;32;20016;-96
2022/08/30 04:01:32;;;;;;;;;;;;;;;21.39;60.34;99884.56;4444281;32;20017;-96
2022/08/30 04:03:57;;;;;;;;;;;;;;;21.39;60.34;99903.09;4456630;32;20012;-95
2022/08/30 04:06:24;;;;;;;;;;;;;;;21.30;60.33;99892.34;4443304;32;19987;-95
2022/08/30 04:08:50;;;;;;;;;;;;;;;21.47;60.33;99888.41;4446029;32;19968;-95
2022/08/30 04:11:15;;;;;;;;;;;;;;;21.50;60.34;99899.63;4459996;32;20006;-96
2022/08/30 04:13:41;;;;;;;;;;;;;;;21.37;60.33;99901.50;4444891;32;19985;-96
2022/08/30 04:16:06;;;;;;;;;;;;;;;21.22;60.33;99897.31;4445214;32;20007;-95
2022/08/30 04:18:34;;;;;;;;;;;;;;;21.38;60.34;99908.50;4448424;32;20022;-96
2022/08/30 04:21:00;;;;;;;;;;;;;;;21.55;60.34;99913.41;4437377;32;20009;-96
2022/08/30 04:23:30;;;;;;;;;;;;;;;21.43;60.34;99915.13;4458197;32;20027;-96
2022/08/30 04:25:55;;;;;;;;;;;;;;;21.41;60.34;99925.00;4455657;32;19981;-96
2022/08/30 04:28:22;;;;;;;;;;;;;;;21.43;60.34;99931.03;4467160;32;19969;-96
2022/08/30 04:30:48;;;;;;;;;;;;;;;21.52;60.34;99926.84;4480485;32;19948;-96
2022/08/30 04:33:15;;;;;;;;;;;;;;;21.51;60.34;99933.09;4450059;32;20014;-96
2022/08/30 04:35:44;;;;;;;;;;;;;;;21.48;60.35;99946.56;4447913;32;19973;-96
2022/08/30 04:38:09;;;;;;;;;;;;;;;21.50;60.34;99952.59;4437335;32;19993;-96
2022/08/30 04:40:35;;;;;;;;;;;;;;;21.68;60.35;99948.59;4444133;32;19981;-96
2022/08/30 04:43:00;;;;;;;;;;;;;;;21.89;60.36;99950.59;4445426;32;20019;-96
2022/08/30 04:45:25;;;;;;;;;;;;;;;21.72;60.35;99952.69;4445091;32;20009;-96
2022/08/30 04:47:51;;;;;;;;;;;;;;;21.71;60.36;99948.34;4445319;32;19999;-96
2022/08/30 04:50:16;;;;;;;;;;;;;;;21.71;60.36;99953.66;4443775;32;20030;-95
2022/08/30 04:52:42;;;;;;;;;;;;;;;21.82;60.36;99950.22;4443203;32;19980;-96
2022/08/30 04:55:07;;;;;;;;;;;;;;;21.81;60.36;99958.28;4445607;32;20227;-96
2022/08/30 04:57:33;;;;;;;;;;;;;;;21.73;60.35;99956.19;4448644;32;20013;-96
2022/08/30 04:59:58;;;;;;;;;;;;;;;21.85;60.36;99954.44;4446529;32;20007;-96
2022/08/30 05:02:23;;;;;;;;;;;;;;;22.07;60.37;99959.84;4447227;32;19999;-95
2022/08/30 05:07:33;;;;;;;;;;;;;;;22.29;60.38;99953.72;4466793;32;20041;-96
2022/08/30 05:09:58;;;;;;;;;;;;;;;22.48;60.39;99958.47;4442970;32;19988;-96
2022/08/30 05:12:23;;;;;;;;;;;;;;;22.75;60.40;99953.63;4444714;32;20022;-96
2022/08/30 05:14:48;;;;;;;;;;;;;;;22.74;60.41;99959.06;4452193;32;19989;-96
2022/08/30 05:17:14;;;;;;;;;;;;;;;22.96;60.42;99962.56;4442345;32;19997;-96
2022/08/30 05:19:39;;;;;;;;;;;;;;;22.86;60.41;99966.91;4456664;32;20003;-96
2022/08/30 05:22:04;;;;;;;;;;;;;;;23.01;60.42;99962.19;4443824;32;20027;-96
2022/08/30 05:24:30;;;;;;;;;;;;;;;22.99;60.42;99961.47;4447304;32;19988;-96
2022/08/30 05:26:56;;;;;;;;;;;;;;;;;;4455087;32;19984;-96
2022/08/30 05:29:21;;;;;;;;;;;;;;;23.03;60.42;99968.22;4452714;32;20114;-96
2022/08/30 05:31:48;;;;;;;;;;;;;;;23.11;60.42;99957.81;4446888;32;20113;-94
2022/08/30 05:34:14;;;;;;;;;;;;;;;23.28;60.44;99959.12;4444423;32;20614;-96
2022/08/30 05:36:39;;;;;;;;;;;;;;;23.36;60.44;99954.03;4446986;32;19984;-96
2022/08/30 05:39:07;;;;;;;;;;;;;;;23.57;60.46;99965.56;4446818;32;20003;-96
2022/08/30 05:41:33;;;;;;;;;;;;;;;23.61;60.45;99962.66;4446716;32;20398;-96
2022/08/30 05:43:58;;;;;;;;;;;;;;;23.60;60.45;99958.31;4459398;32;20014;-96
2022/08/30 05:46:24;;;;;;;;;;;;;;;23.65;60.45;99962.28;4446698;32;20227;-96
2022/08/30 05:48:49;;;;;;;;;;;;;;;23.77;60.46;99958.62;4446790;32;20354;-95
2022/08/30 05:51:16;;;;;;;;;;;;;;;23.87;60.46;99961.31;4445621;32;19980;-94
2022/08/30 05:53:41;;;;;;;;;;;;;;;24.04;60.47;99960.75;4445943;32;19949;-95
2022/08/30 05:56:07;;;;;;;;;;;;;;;24.02;60.47;99961.88;4443156;32;20062;-95
2022/08/30 05:58:33;;;;;;;;;;;;;;;24.09;60.48;99965.69;4445746;32;20011;-95
2022/08/30 06:00:58;;;;;;;;;;;;;;;24.18;60.48;99962.25;4445490;32;19965;-96
2022/08/30 06:03:23;;;;;;;;;;;;;;;24.16;60.48;99969.53;4445682;32;20226;-95
2022/08/30 06:05:48;;;;;;;;;;;;;;;24.28;60.48;99960.53;4445491;32;19985;-94
2022/08/30 06:08:14;;;;;;;;;;;;;;;24.39;60.49;99968.44;4445233;32;22760;-95
2022/08/30 06:10:39;;;;;;;;;;;;;;;24.33;60.49;99968.09;4445747;32;19984;-95
2022/08/30 06:13:04;;;;;;;;;;;;;;;24.62;60.50;99963.78;4446067;32;19973;-96
2022/08/30 06:15:29;;;;;;;;;;;;;;;24.63;60.50;99964.63;4435237;32;19985;-94
2022/08/30 06:17:55;;;;;;;;;;;;;;;24.70;60.51;99971.94;4442823;32;20431;-94
2022/08/30 06:20:20;;;;;;;;;;;;;;;24.83;60.51;99976.19;4457690;32;20041;-94
2022/08/30 06:22:46;;;;;;;;;;;;;;;24.94;60.52;99976.09;4457604;32;20360;-95
2022/08/30 06:25:11;;;;;;;;;;;;;;;25.11;60.53;99972.81;4444919;32;19993;-95
2022/08/30 06:27:37;;;;;;;;;;;;;;;25.38;60.54;99970.34;4452789;32;20040;-94
2022/08/30 06:30:03;;;;;;;;;;;;;;;25.23;60.54;99969.06;4457966;32;19990;-94
2022/08/30 06:32:28;;;;;;;;;;;;;;;25.29;60.54;99971.16;4444496;32;19981;-95
2022/08/30 06:34:53;;;;;;;;;;;;;;;25.30;60.53;99970.19;4458370;32;20044;-94
2022/08/30 06:37:18;;;;;;;;;;;;;;;25.22;60.53;99978.03;4446248;32;20007;-92
2022/08/30 06:39:44;;;;;;;;;;;;;;;25.22;60.54;99972.69;4447069;32;19981;-95
2022/08/30 06:42:09;;;;;;;;;;;;;;;25.40;60.55;99970.22;4458401;32;19984;-94
2022/08/30 06:44:34;;;;;;;;;;;;;;;25.27;60.54;99973.13;4446864;32;20309;-95
2022/08/30 06:46:59;;;;;;;;;;;;;;;25.36;60.54;99977.63;4442838;32;20030;-94
2022/08/30 06:49:25;;;;;;;;;;;;;;;25.51;60.55;99974.56;4444392;32;19999;-94
2022/08/30 06:51:50;;;;;;;;;;;;;;;25.61;60.56;99970.09;4441155;32;21190;-95
2022/08/30 06:54:15;;;;;;;;;;;;;;;25.86;60.56;99966.88;4441606;32;19997;-95
2022/08/30 06:56:41;;;;;;;;;;;;;;;25.86;60.58;99974.88;4454661;32;19993;-94
2022/08/30 06:59:06;;;;;;;;;;;;;;;25.93;60.58;99970.66;4457142;32;20028;-95
2022/08/30 07:01:32;;;;;;;;;;;;;;;26.07;60.58;99980.06;4443907;32;27213;-96
2022/08/30 07:03:57;;;;;;;;;;;;;;;26.29;60.59;99981.56;4456922;32;19996;-94
2022/08/30 07:06:23;;;;;;;;;;;;;;;26.45;60.60;99972.97;4441379;32;20015;-94
2022/08/30 07:08:49;;;;;;;;;;;;;;;26.73;60.62;99977.38;4439283;32;20278;-94
2022/08/30 07:11:14;;;;;;;;;;;;;;;26.80;60.63;99981.16;4444183;32;20022;-95
2022/08/30 07:13:39;;;;;;;;;;;;;;;27.01;60.63;99983.63;4443846;32;19997;-95
2022/08/30 07:16:09;;;;;;;;;;;;;;;27.26;60.64;99981.22;4443704;32;19997;-94
2022/08/30 07:18:50;;;;;;;;;;;;;;;27.27;60.64;99988.25;4444280;32;20393;-95
2022/08/30 07:21:17;;;;;;;;;;;;;;;27.40;60.65;99983.38;4445529;32;19988;-95
2022/08/30 07:23:43;;;;;;;;;;;;;;;27.55;60.65;99989.03;4443845;32;20004;-95
2022/08/30 07:26:09;;;;;;;;;;;;;;;27.59;60.65;99982.41;4449839;32;19981;-93
2022/08/30 07:28:35;;;;;;;;;;;;;;;27.73;60.66;99987.25;4442841;32;19978;-96
2022/08/30 07:31:01;;;;;;;;;;;;;;;27.69;60.67;99985.87;4441759;32;19989;-94
2022/08/30 07:33:26;;;;;;;;;;;;;;;27.80;60.67;99985.63;4440679;32;20308;-94
2022/08/30 07:35:51;;;;;;;;;;;;;;;27.99;60.69;99992.66;4440674;32;25166;-94
2022/08/30 07:38:17;;;;;;;;;;;;;;;27.93;60.68;99991.44;4438896;32;20337;-94
2022/08/30 07:40:42;;;;;;;;;;;;;;;28.10;60.69;99987.88;4440773;32;19981;-94
2022/08/30 07:43:07;;;;;;;;;;;;;;;28.12;60.69;99990.41;4443111;32;20029;-95
2022/08/30 07:45:33;;;;;;;;;;;;;;;28.32;60.70;99985.72;4442560;32;20006;-95
2022/08/30 07:48:05;;;;;;;;;;;;;;;28.39;60.70;99986.78;4443628;32;20298;-95
2022/08/30 07:50:33;;;;;;;;;;;;;;;28.47;60.71;99986.00;4443972;32;20518;-94
2022/08/30 07:52:58;;;;;;;;;;;;;;;28.68;60.71;99991.81;4441024;32;20620;-94
2022/08/30 07:55:24;;;;;;;;;;;;;;;28.77;60.71;99990.00;4441503;32;20000;-94
2022/08/30 07:57:49;;;;;;;;;;;;;;;28.77;60.72;99993.53;4441043;32;20354;-95
2022/08/30 08:00:15;;;;;;;;;;;;;;;28.78;60.72;99989.00;4443672;32;20003;-94
2022/08/30 08:02:41;;;;;;;;;;;;;;;28.72;60.72;99985.97;4443505;32;20005;-94
2022/08/30 08:05:07;;;;;;;;;;;;;;;29.15;60.74;99994.06;4444117;32;20007;-95
2022/08/30 08:07:32;;;;;;;;;;;;;;;29.08;60.74;99985.81;4444014;32;20266;-94
2022/08/30 08:09:57;;;;;;;;;;;;;;;29.17;60.74;99992.06;4466159;32;19985;-94
2022/08/30 08:12:23;;;;;;;;;;;;;;;29.25;60.75;99995.59;4457404;32;20033;-94
2022/08/30 08:14:49;;;;;;;;;;;;;;;29.27;60.76;99990.06;4445757;32;19977;-94
2022/08/30 08:17:14;;;;;;;;;;;;;;;29.15;60.74;99988.72;4452102;32;19983;-95
2022/08/30 08:22:26;;;;;;;;;;;;;;;29.04;60.74;99993.34;4458843;32;19972;-94
2022/08/30 08:25:00;;;;;;;;;;;;;;;29.10;60.75;99991.84;4455686;32;20001;-93
2022/08/30 08:27:25;;;;;;;;;;;;;;;29.12;60.74;99997.09;4450358;32;20380;-93
2022/08/30 08:29:50;;;;;;;;;;;;;;;29.21;60.75;99996.09;4442942;32;19993;-94
2022/08/30 08:32:15;;;;;;;;;;;;;;;29.16;60.74;99996.59;4443321;32;20004;-94
2022/08/30 08:34:41;;;;;;;;;;;;;;;29.32;60.75;99991.25;4442989;32;20326;-94
2022/08/30 08:37:06;;;;;;;;;;;;;;;29.42;60.76;99996.50;4442825;32;20016;-96
2022/08/30 08:39:31;;;;;;;;;;;;;;;29.47;60.76;99994.19;4442431;32;21654;-94
2022/08/30 08:42:17;;;;;;;;;;;;;;;29.69;60.77;99991.88;4442833;32;19997;-94
2022/08/30 08:44:49;;;;;;;;;;;;;;;29.72;60.78;99987.00;4440751;32;19981;-96
2022/08/30 08:47:40;;;;;;;;;;;;;;;30.05;60.79;99985.22;4443278;32;20349;-94
2022/08/30 08:50:16;;;;;;;;;;;;;;;30.19;60.80;99981.81;4427636;32;20012;-95
2022/08/30 08:57:47;;;;;;;;;;;;;;;30.41;60.81;99985.66;4485806;32;20511;-92
2022/08/30 09:00:13;;;;;;;;;;;;;;;30.46;60.82;99985.13;4460052;32;19976;-93
2022/08/30 09:02:42;;;;;;;;;;;;;;;30.49;60.81;99982.09;4472407;32;20045;-93
2022/08/30 09:05:07;;;;;;;;;;;;;;;30.38;60.81;99983.31;4472473;32;20068;-93
2022/08/30 09:07:37;;;;;;;;;;;;;;;30.51;60.81;99983.59;4459144;32;20062;-92
2022/08/30 09:10:02;;;;;;;;;;;;;;;30.46;60.82;99985.97;4459165;32;20329;-92
2022/08/30 09:12:53;;;;;;;;;;;;;;;30.73;60.83;99976.69;4460350;32;19989;-92
2022/08/30 09:15:24;;;;;;;;;;;;;;;30.83;60.84;99971.97;4463856;32;20008;-92
2022/08/30 09:18:03;;;;;;;;;;;;;;;31.18;60.86;99963.59;4443426;32;20329;-92
2022/08/30 09:20:52;;;;;;;;;;;;;;;31.09;60.85;99968.16;4462756;32;20250;-92
2022/08/30 09:23:17;;;;;;;;;;;;;;;31.28;60.85;99959.69;4454600;32;19996;-92
2022/08/30 09:25:52;;;;;;;;;;;;;;;31.29;60.86;99966.72;4483415;32;19968;-92
2022/08/30 09:28:25;;;;;;;;;;;;;;;31.28;60.85;99965.06;4459151;32;19976;-92
2022/08/30 09:31:17;;;;;;;;;;;;;;;31.42;60.87;99961.59;4472444;32;20588;-92
2022/08/30 09:34:04;;;;;;;;;;;;;;;31.26;60.86;99950.97;4468474;32;20397;-92
2022/08/30 09:36:34;;;;;;;;;;;;;;;31.30;60.86;99952.28;4459521;32;20329;-93
2022/08/30 09:39:00;;;;;;;;;;;;;;;31.35;60.86;99955.25;4472172;32;20045;-92
2022/08/30 09:41:36;;;;;;;;;;;;;;;31.36;60.86;99950.72;4456712;32;19987;-91
2022/08/30 09:44:08;;;;;;;;;;;;;;;31.44;60.87;99945.25;4457222;32;20055;-92
2022/08/30 09:46:33;;;;;;;;;;;;;;;31.54;60.87;99948.56;4466648;32;19992;-92
2022/08/30 09:48:58;;;;;;;;;;;;;;;31.20;60.85;99950.81;4487859;32;19972;-91
2022/08/30 09:51:33;;;;;;;;;;;;;;;31.00;60.85;99945.84;4473798;32;20039;-91
2022/08/30 09:54:01;;;;;;;;;;;;;;;30.91;60.84;99946.06;4481003;32;19961;-91
2022/08/30 09:56:26;;;;;;;;;;;;;;;30.72;60.83;99945.47;4479354;32;19997;-91
2022/08/30 09:59:10;;;;;;;;;;;;;;;30.78;60.84;99939.41;4486469;32;19979;-91
2022/08/30 10:01:36;;;;;;;;;;;;;;;30.80;60.84;99939.22;4472035;32;19984;-92
2022/08/30 10:04:13;;;;;;;;;;;;;;;30.74;60.83;99939.91;4458055;32;20023;-92
2022/08/30 10:06:40;;;;;;;;;;;;;;;30.80;60.83;99929.31;4451540;32;19993;-91
2022/08/30 10:09:06;;;;;;;;;;;;;;;30.57;60.82;99928.38;4468239;32;19984;-91
2022/08/30 10:11:40;;;;;;;;;;;;;;;30.90;60.84;99931.78;4486628;32;20000;-91
2022/08/30 10:14:05;;;;;;;;;;;;;;;31.13;60.85;99923.75;4471812;32;19993;-91
2022/08/30 10:16:33;;;;;;;;;;;;;;;31.21;60.85;99931.78;4471892;32;20015;-91
2022/08/30 10:18:59;;;;;;;;;;;;;;;31.43;60.87;99927.44;4486026;32;20364;-90
2022/08/30 10:21:28;;;;;;;;;;;;;;;31.51;60.87;99921.19;4485833;32;19980;-91
2022/08/30 10:23:56;;;;;;;;;;;;;;;31.87;60.88;99914.16;4456065;32;20372;-91
2022/08/30 10:26:31;;;;;;;;;;;;;;;32.16;60.90;99909.84;4453948;32;20030;-92
2022/08/30 10:28:58;;;;;;;;;;;;;;;32.49;60.92;99913.06;4475736;32;19981;-91
2022/08/30 10:31:24;;;;;;;;;;;;;;;32.69;60.93;99906.09;4448319;32;19988;-93
2022/08/30 10:33:50;;;;;;;;;;;;;;;32.81;60.93;99911.84;4470815;32;20345;-92
2022/08/30 10:36:32;;;;;;;;;;;;;;;33.00;60.95;99903.16;4456336;32;20004;-92
2022/08/30 10:38:57;;;;;;;;;;;;;;;32.90;60.94;99902.63;4458889;32;19987;-92
2022/08/30 10:41:38;;;;;;;;;;;;;;;33.11;60.95;99905.34;4471613;32;20020;-92
2022/08/30 10:44:18;;;;;;;;;;;;;;;33.40;60.97;99895.53;4458728;32;19996;-92
2022/08/30 10:47:02;;;;;;;;;;;;;;;33.48;60.98;99898.06;4471703;32;20337;-92
2022/08/30 10:49:28;;;;;;;;;;;;;;;33.52;60.97;99893.97;4471433;32;20285;-93
2022/08/30 10:51:53;;;;;;;;;;;;;;;33.39;60.96;99893.84;4456059;32;19992;-93
2022/08/30 10:54:43;;;;;;;;;;;;;;;33.60;60.98;99888.44;4455809;32;20024;-93
2022/08/30 10:57:08;;;;;;;;;;;;;;;33.75;60.98;99885.63;4461142;32;20097;-92
2022/08/30 10:59:34;;;;;;;;;;;;;;;33.57;60.98;99878.84;4471515;32;19992;-92
2022/08/30 11:02:15;;;;;;;;;;;;;;;33.59;60.98;99878.66;4455932;32;20314;-92
2022/08/30 11:04:49;;;;;;;;;;;;;;;33.43;60.97;99879.78;4476129;32;19957;-92
2022/08/30 11:07:41;;;;;;;;;;;;;;;33.38;60.96;99876.00;4471881;32;20048;-93
2022/08/30 11:10:06;;;;;;;;;;;;;;;33.47;60.98;99877.50;4468089;32;19972;-92
2022/08/30 11:12:48;;;;;;;;;;;;;;;33.66;60.98;99873.31;4471763;32;19991;-92
2022/08/30 11:15:18;;;;;;;;;;;;;;;33.88;61.00;99871.44;4471788;32;20000;-93
2022/08/30 11:18:02;;;;;;;;;;;;;;;33.86;60.99;99866.25;4471773;32;20047;-93
2022/08/30 11:20:46;;;;;;;;;;;;;;;33.66;60.98;99870.63;4472082;32;20276;-92
2022/08/30 11:23:17;;;;;;;;;;;;;;;33.82;60.99;99863.03;4486169;32;19976;-92
2022/08/30 11:26:01;;;;;;;;;;;;;;;34.02;60.99;99852.41;4465614;32;19985;-91
2022/08/30 11:28:35;;;;;;;;;;;;;;;34.03;60.99;99862.19;4485359;32;20143;-93
2022/08/30 11:31:05;;;;;;;;;;;;;;;34.03;60.99;99845.16;4478162;32;19953;-91
2022/08/30 11:33:49;;;;;;;;;;;;;;;33.99;61.00;99843.88;4467607;32;20321;-92
2022/08/30 11:36:58;;;;;;;;;;;;;;;34.39;61.02;99844.97;4485567;32;19989;-92
2022/08/30 11:39:41;;;;;;;;;;;;;;;34.43;61.01;99843.53;4482457;32;19984;-94
2022/08/30 11:42:23;;;;;;;;;;;;;;;34.59;61.02;99839.66;4471217;32;19999;-92
2022/08/30 11:44:48;;;;;;;;;;;;;;;34.40;61.02;99842.06;4471879;32;20111;-92
2022/08/30 11:47:50;;;;;;;;;;;;;;;34.29;61.02;99833.66;4458198;32;20024;-92
2022/08/30 11:50:15;;;;;;;;;;;;;;;34.36;61.02;99832.69;4470266;32;19996;-92
2022/08/30 11:52:59;;;;;;;;;;;;;;;34.75;61.03;99823.88;4474565;31;19992;-92
2022/08/30 11:55:24;;;;;;;;;;;;;;;34.69;61.04;99826.56;4471044;32;19980;-92
2022/08/30 11:58:08;;;;;;;;;;;;;;;34.30;61.02;99824.50;4445745;32;804568;-93
2022/08/30 12:00:34;;;;;;;;;;;;;;;34.33;61.01;99819.56;4470808;32;19996;-92
2022/08/30 12:03:00;;;;;;;;;;;;;;;34.33;61.01;99816.84;4470891;32;20756;-92
2022/08/30 12:08:32;;;;;;;;;;;;;;;34.75;61.03;99807.66;4460845;32;20016;-93
2022/08/30 12:11:09;;;;;;;;;;;;;;;34.91;61.04;99809.19;4468555;32;20018;-91
2022/08/30 12:13:38;;;;;;;;;;;;;;;34.76;61.03;99808.47;4470983;32;19994;-93
2022/08/30 12:16:07;;;;;;;;;;;;;;;35.01;61.05;99800.66;4470757;32;19981;-93
2022/08/30 12:18:46;;;;;;;;;;;;;;;35.16;61.05;99797.78;4458035;32;20365;-93
2022/08/30 12:21:20;;;;;;;;;;;;;;;35.23;61.05;99794.03;4457708;32;20020;-92
2022/08/30 12:23:51;;;;;;;;;;;;;;;35.32;61.06;99797.38;4485206;32;19976;-92
2022/08/30 12:26:42;;;;;;;;;;;;;;;34.99;61.04;99795.44;4461072;32;20012;-92
2022/08/30 12:29:18;;;;;;;;;;;;;;;34.44;61.03;99785.72;4468398;32;20007;-93
2022/08/30 12:31:46;;;;;;;;;;;;;;;34.30;61.02;99789.38;4445415;32;20031;-93
2022/08/30 12:34:16;;;;;;;;;;;;;;;34.05;61.01;99789.88;4473347;32;19972;-92
2022/08/30 12:36:49;;;;;;;;;;;;;;;33.64;60.97;99780.91;4459825;32;20002;-93
2022/08/30 12:39:16;;;;;;;;;;;;;;;33.70;60.98;99772.84;4460010;32;20004;-93
2022/08/30 12:41:41;;;;;;;;;;;;;;;33.80;61.00;99776.00;4459550;32;20084;-92
2022/08/30 12:44:08;;;;;;;;;;;;;;;34.02;61.00;99768.69;4459642;32;19981;-93
2022/08/30 12:46:34;;;;;;;;;;;;;;;34.08;61.00;99764.37;4457169;32;19977;-93
2022/08/30 12:48:59;;;;;;;;;;;;;;;34.29;61.02;99764.22;4460163;32;20039;-93
2022/08/30 12:51:35;;;;;;;;;;;;;;;34.41;61.02;99761.81;4459696;32;20036;-93
2022/08/30 12:54:03;;;;;;;;;;;;;;;34.55;61.03;99755.44;4459694;32;20309;-93
2022/08/30 12:56:47;;;;;;;;;;;;;;;34.44;61.03;99754.12;4459771;32;19959;-93
2022/08/30 12:59:33;;;;;;;;;;;;;;;34.53;61.03;99740.41;4459819;32;20052;-93
2022/08/30 13:02:13;;;;;;;;;;;;;;;34.61;61.03;99745.66;4459686;32;20388;-93
2022/08/30 13:04:38;;;;;;;;;;;;;;;34.58;61.03;99738.78;4458851;32;19987;-93
2022/08/30 13:07:04;;;;;;;;;;;;;;;34.74;61.04;99745.66;4470064;32;19976;-93
2022/08/30 13:12:34;;;;;;;;;;;;;;;34.30;61.02;99744.28;4452664;32;19992;-93